Ware, Massachusetts
Current Conditions -  °F | °C
As of 11:58 PM on Tuesday 25 Nov 2014 (Local Time) from KCEF Reporting Station
Scattered Clouds Scattered Clouds  
Wind Chill: 35°   Ceiling: Unl
Heat Index: 35°   Visibility: 10mi
Dew Point: 29°   Wind: 1mph
Humidity: 81%   Direction: NA
Pressure: 30.12"   Gusts: NA
Location:  42.26°N, 72.24°W
Report Text: KCEF 260458Z AUTO VRB01KT 10SM SCT190 02/M01 A3012 RMK AO2 SLP207 T00161014 401561002
Loading
Personal Weather Stations






























Interactive Weather Map New forecast layout! Learn more

10-Day Weather Forecast

Advertisements
Track Severe Weather on mobile